Time;durP1;ratioP1;P1;durP2;ratioP2;P2;SDS_P1;SDS_P2;PMS_P1;PMS_P2;Temp;Humidity;BMP_temperature;BMP_pressure;BME280_temperature;BME280_humidity;BME280_pressure;Samples;Min_cycle;Max_cycle;Signal;HPM_P1;HPM_P2
2024/04/10 00:00:56;;;;;;;2.33;0.60;;;;;20.60;100880.00;;;;2195728;26;20358;-56
2024/04/10 00:01:56;;;;;;;2.20;0.60;;;;;20.60;100866.00;;;;2199922;26;20292;-57
2024/04/10 00:02:56;;;;;;;1.77;0.63;;;;;20.60;100867.00;;;;2202450;26;20813;-60
2024/04/10 00:03:57;;;;;;;1.93;0.60;;;;;20.60;100826.00;;;;2202235;26;20252;-58
2024/04/10 00:04:57;;;;;;;1.60;0.60;;;;;20.60;100807.00;;;;2203592;26;20256;-58
2024/04/10 00:05:58;;;;;;;2.43;0.53;;;;;20.60;100821.00;;;;2192984;26;20647;-57
2024/04/10 00:06:58;;;;;;;2.08;0.52;;;;;20.60;100660.00;;;;2202570;26;20320;-58
2024/04/10 00:07:59;;;;;;;3.30;0.80;;;;;20.50;100883.00;;;;2203973;26;20455;-58
2024/04/10 00:08:59;;;;;;;2.50;0.53;;;;;20.60;100882.00;;;;2201766;26;20295;-59
2024/04/10 00:09:59;;;;;;;2.20;0.50;;;;;20.60;100879.00;;;;2204554;26;20252;-57
2024/04/10 00:11:02;;;;;;;2.70;0.70;;;;;20.60;100763.00;;;;2197276;26;20300;-57
2024/04/10 00:12:03;;;;;;;2.05;0.50;;;;;20.60;100849.00;;;;2201289;26;20343;-58
2024/04/10 00:13:03;;;;;;;3.83;0.60;;;;;20.60;100880.00;;;;2203416;26;20738;-58
2024/04/10 00:14:04;;;;;;;2.07;0.50;;;;;20.60;100869.00;;;;2203591;26;20260;-57
2024/04/10 00:15:04;;;;;;;1.80;0.60;;;;;20.60;100741.00;;;;2207932;26;20256;-58
2024/04/10 00:16:06;;;;;;;1.80;0.60;;;;;20.60;100786.00;;;;2198114;26;20291;-57
2024/04/10 00:17:06;;;;;;;2.10;0.60;;;;;20.60;100918.00;;;;2203147;26;20264;-57
2024/04/10 00:18:06;;;;;;;3.13;0.63;;;;;20.60;100748.00;;;;2201849;26;20264;-58
2024/04/10 00:19:07;;;;;;;2.00;0.80;;;;;20.60;100885.00;;;;2202069;26;20327;-58
2024/04/10 00:20:08;;;;;;;2.03;0.60;;;;;20.60;100887.00;;;;2203482;26;20364;-59
2024/04/10 00:21:08;;;;;;;2.47;0.63;;;;;20.60;100814.00;;;;2192276;26;20256;-58
2024/04/10 00:22:08;;;;;;;3.20;0.83;;;;;20.60;100868.00;;;;2202257;26;20475;-57
2024/04/10 00:23:09;;;;;;;2.50;0.60;;;;;20.60;100894.00;;;;2201975;26;20268;-57
2024/04/10 00:24:09;;;;;;;5.60;0.83;;;;;20.60;100909.00;;;;2203242;26;20282;-59
2024/04/10 00:25:10;;;;;;;3.73;0.50;;;;;20.60;100931.00;;;;2203155;26;20298;-57
2024/04/10 00:26:10;;;;;;;2.50;0.60;;;;;20.60;100726.00;;;;2193548;26;20256;-58
2024/04/10 00:27:11;;;;;;;1.60;0.50;;;;;20.60;100918.00;;;;2204141;26;20783;-57
2024/04/10 00:28:11;;;;;;;1.83;0.50;;;;;20.60;100808.00;;;;2202694;26;20795;-57
2024/04/10 00:29:11;;;;;;;1.90;0.53;;;;;20.60;100779.00;;;;2204609;26;20256;-58
2024/04/10 00:30:12;;;;;;;7.03;0.67;;;;;20.60;100903.00;;;;2203366;26;20284;-57
2024/04/10 00:31:12;;;;;;;2.93;0.77;;;;;20.60;100885.00;;;;2194838;26;20256;-58
2024/04/10 00:32:12;;;;;;;2.63;0.80;;;;;20.60;100758.00;;;;2203504;26;20334;-57
2024/04/10 00:33:13;;;;;;;2.43;0.50;;;;;20.60;100773.00;;;;2211281;26;20759;-57
2024/04/10 00:34:13;;;;;;;1.83;0.50;;;;;20.60;100763.00;;;;2208172;26;20692;-59
2024/04/10 00:35:14;;;;;;;3.80;0.80;;;;;20.60;100916.00;;;;2205270;26;20260;-58
2024/04/10 00:36:14;;;;;;;2.43;0.60;;;;;20.50;100969.00;;;;2200623;26;20364;-57
2024/04/10 00:37:15;;;;;;;3.33;0.70;;;;;20.60;100920.00;;;;2206724;26;21087;-57
2024/04/10 00:38:15;;;;;;;3.13;0.70;;;;;20.60;100923.00;;;;2200950;26;20257;-57
2024/04/10 00:39:16;;;;;;;2.20;0.50;;;;;20.50;100920.00;;;;2195256;26;20512;-57
2024/04/10 00:40:16;;;;;;;2.20;0.60;;;;;20.60;100922.00;;;;2196512;26;20253;-58
2024/04/10 00:41:16;;;;;;;2.40;0.70;;;;;20.60;100932.00;;;;2193781;26;20272;-59
2024/04/10 00:42:17;;;;;;;2.10;0.60;;;;;20.60;100882.00;;;;2202505;26;23164;-58
2024/04/10 00:43:17;;;;;;;2.60;0.47;;;;;20.60;100932.00;;;;2204876;26;20257;-58
2024/04/10 00:44:18;;;;;;;3.50;0.60;;;;;20.60;100932.00;;;;2206221;26;20302;-58
2024/04/10 00:45:19;;;;;;;1.77;0.47;;;;;20.60;100833.00;;;;2204408;26;20366;-57
2024/04/10 00:46:21;;;;;;;2.60;0.60;;;;;20.60;100877.00;;;;2205461;26;20256;-57
2024/04/10 00:47:21;;;;;;;1.92;0.60;;;;;20.60;100931.00;;;;2202839;26;20307;-58
2024/04/10 00:48:22;;;;;;;2.23;0.50;;;;;20.60;100935.00;;;;2205000;26;20253;-58
2024/04/10 00:49:22;;;;;;;2.83;0.60;;;;;20.50;100953.00;;;;2205063;26;20270;-57
2024/04/10 00:50:22;;;;;;;2.40;0.60;;;;;20.60;100822.00;;;;2204706;26;20249;-57
2024/04/10 00:51:23;;;;;;;2.27;0.60;;;;;20.50;100794.00;;;;2192591;26;20260;-57
2024/04/10 00:52:23;;;;;;;2.83;0.63;;;;;20.60;100943.00;;;;2205410;26;20369;-58
2024/04/10 00:53:24;;;;;;;3.13;0.80;;;;;20.50;100937.00;;;;2205790;26;20248;-58
2024/04/10 00:54:24;;;;;;;2.63;0.70;;;;;20.50;100886.00;;;;2197946;26;20290;-57
2024/04/10 00:55:24;;;;;;;5.10;0.53;;;;;20.50;100937.00;;;;2203106;26;20260;-57
2024/04/10 00:56:25;;;;;;;2.27;0.80;;;;;20.50;100958.00;;;;2192342;26;20272;-58
2024/04/10 00:57:25;;;;;;;2.37;0.70;;;;;20.60;100878.00;;;;2200533;26;20244;-57
2024/04/10 00:58:25;;;;;;;2.17;0.50;;;;;20.60;100964.00;;;;2189205;26;20253;-58
2024/04/10 00:59:26;;;;;;;2.60;0.67;;;;;20.50;100952.00;;;;2187171;26;20383;-58
2024/04/10 01:00:26;;;;;;;1.87;0.60;;;;;20.50;100884.00;;;;2200641;26;20260;-58
2024/04/10 01:01:26;;;;;;;2.97;0.60;;;;;20.50;101005.00;;;;2191462;26;21327;-58
2024/04/10 01:02:27;;;;;;;2.10;0.70;;;;;20.60;100849.00;;;;2217058;26;20646;-58
2024/04/10 01:03:28;;;;;;;2.25;0.63;;;;;20.50;100960.00;;;;2199677;26;20295;-58
2024/04/10 01:04:28;;;;;;;3.83;0.80;;;;;20.50;100980.00;;;;2204108;26;21024;-58
2024/04/10 01:05:29;;;;;;;2.10;0.63;;;;;20.50;100962.00;;;;2210111;26;20256;-57
2024/04/10 01:06:29;;;;;;;2.20;0.60;;;;;20.60;100951.00;;;;2178800;26;20363;-58
2024/04/10 01:07:29;;;;;;;3.00;0.67;;;;;20.60;100936.00;;;;2213374;26;20247;-57
2024/04/10 01:08:31;;;;;;;3.90;0.60;;;;;20.50;100970.00;;;;2189414;26;20264;-57
2024/04/10 01:09:31;;;;;;;2.00;0.60;;;;;20.60;100915.00;;;;2204284;26;20291;-57
2024/04/10 01:10:32;;;;;;;2.97;0.80;;;;;20.60;101002.00;;;;2203613;26;20256;-57
2024/04/10 01:11:32;;;;;;;2.40;0.87;;;;;20.60;100852.00;;;;2193525;26;20381;-58
2024/04/10 01:12:34;;;;;;;2.17;0.57;;;;;20.50;100901.00;;;;2216886;26;20586;-58
2024/04/10 01:13:34;;;;;;;2.45;0.90;;;;;20.50;100860.00;;;;2207543;26;20318;-58
2024/04/10 01:14:34;;;;;;;2.80;0.80;;;;;20.50;100852.00;;;;2204513;26;20648;-58
2024/04/10 01:15:35;;;;;;;2.80;0.60;;;;;20.50;100979.00;;;;2189904;26;20256;-59
2024/04/10 01:16:35;;;;;;;2.43;0.63;;;;;20.50;100909.00;;;;2204641;26;20248;-58
2024/04/10 01:17:35;;;;;;;2.10;0.60;;;;;20.50;100907.00;;;;2202136;26;20287;-57
2024/04/10 01:18:36;;;;;;;2.20;0.77;;;;;20.50;100833.00;;;;2203523;26;20248;-58
2024/04/10 01:19:36;;;;;;;2.23;0.60;;;;;20.50;100844.00;;;;2204619;26;20296;-58
2024/04/10 01:20:36;;;;;;;3.67;0.70;;;;;20.50;100903.00;;;;2188113;26;20268;-58
2024/04/10 01:21:37;;;;;;;1.77;0.53;;;;;20.50;100912.00;;;;2173925;27;20262;-58
2024/04/10 01:22:37;;;;;;;3.00;0.60;;;;;20.50;100970.00;;;;2195501;26;20299;-57
2024/04/10 01:23:37;;;;;;;2.40;0.70;;;;;20.50;100972.00;;;;2204093;26;20295;-57
2024/04/10 01:24:38;;;;;;;2.37;0.50;;;;;20.50;100983.00;;;;2204482;26;20294;-57
2024/04/10 01:25:38;;;;;;;2.00;0.67;;;;;20.50;100885.00;;;;2189533;26;20298;-57
2024/04/10 01:26:38;;;;;;;2.13;0.70;;;;;20.50;100924.00;;;;2207083;26;20247;-58
2024/04/10 01:27:39;;;;;;;2.60;0.67;;;;;20.50;100839.00;;;;2202000;26;20301;-57
2024/04/10 01:28:39;;;;;;;2.13;0.50;;;;;20.50;100978.00;;;;2214490;26;20353;-59
2024/04/10 01:29:39;;;;;;;3.80;0.70;;;;;20.50;100980.00;;;;2205384;26;20917;-57
2024/04/10 01:30:40;;;;;;;3.10;0.97;;;;;20.50;100972.00;;;;2190822;26;20584;-58
2024/04/10 01:31:40;;;;;;;2.00;0.70;;;;;20.50;100753.00;;;;2199053;26;20635;-58
2024/04/10 01:32:40;;;;;;;2.37;0.70;;;;;20.50;100985.00;;;;2202589;26;20728;-57
2024/04/10 01:33:41;;;;;;;2.47;0.70;;;;;20.50;100971.00;;;;2212127;26;20728;-57
2024/04/10 01:34:43;;;;;;;2.43;0.57;;;;;20.50;100982.00;;;;2194633;26;20598;-58
2024/04/10 01:35:43;;;;;;;2.85;0.60;;;;;20.50;100694.00;;;;2193168;26;20733;-60
2024/04/10 01:36:43;;;;;;;1.70;0.60;;;;;20.50;101033.00;;;;2201152;26;20291;-56
2024/04/10 01:37:44;;;;;;;3.20;0.87;;;;;20.50;101020.00;;;;2203483;26;21036;-57
2024/04/10 01:38:46;;;;;;;2.53;0.93;;;;;20.50;100896.00;;;;2198214;26;20812;-57
2024/04/10 01:39:46;;;;;;;4.45;0.70;;;;;20.40;100967.00;;;;2194989;26;20261;-58
2024/04/10 01:40:46;;;;;;;1.90;0.50;;;;;20.50;101026.00;;;;2194116;26;20299;-59
2024/04/10 01:41:47;;;;;;;2.73;0.70;;;;;20.50;100889.00;;;;2192295;26;20302;-58
2024/04/10 01:42:47;;;;;;;3.20;0.77;;;;;20.50;100993.00;;;;2203190;26;20298;-57
2024/04/10 01:43:47;;;;;;;2.50;1.00;;;;;20.50;100993.00;;;;2204028;26;20942;-58
2024/04/10 01:44:48;;;;;;;2.00;0.73;;;;;20.50;100813.00;;;;2202263;26;20252;-58
2024/04/10 01:45:48;;;;;;;3.93;0.90;;;;;20.50;100993.00;;;;2194896;26;20264;-58
2024/04/10 01:46:48;;;;;;;1.90;0.70;;;;;20.50;100991.00;;;;2199101;26;20260;-57
2024/04/10 01:47:50;;;;;;;2.77;0.70;;;;;20.50;101024.00;;;;2196256;26;20257;-58
2024/04/10 01:48:50;;;;;;;2.60;0.80;;;;;20.50;100947.00;;;;2202864;26;20307;-57
2024/04/10 01:49:50;;;;;;;2.07;0.60;;;;;20.50;100984.00;;;;2198462;26;20265;-58
2024/04/10 01:50:51;;;;;;;2.80;0.70;;;;;20.50;101008.00;;;;2179124;26;20784;-58
2024/04/10 01:51:51;;;;;;;2.50;0.83;;;;;20.50;100961.00;;;;2199970;26;21041;-57
2024/04/10 01:52:51;;;;;;;2.47;0.67;;;;;20.50;100946.00;;;;2208942;26;20393;-57
2024/04/10 01:53:52;;;;;;;2.37;0.53;;;;;20.50;101015.00;;;;2203013;26;20315;-58
2024/04/10 01:54:53;;;;;;;2.27;0.60;;;;;20.50;101020.00;;;;2204414;26;20268;-57
2024/04/10 01:55:53;;;;;;;3.57;0.73;;;;;20.50;101020.00;;;;2194307;26;20271;-57
2024/04/10 01:56:53;;;;;;;2.23;0.60;;;;;20.50;100971.00;;;;2202362;26;20303;-57
2024/04/10 01:57:53;;;;;;;3.17;1.10;;;;;20.50;100992.00;;;;2211404;26;20634;-57
2024/04/10 01:58:54;;;;;;;2.13;0.77;;;;;20.50;100863.00;;;;2203331;26;20604;-58
2024/04/10 01:59:54;;;;;;;2.27;0.60;;;;;20.50;100921.00;;;;2204400;26;20370;-59
2024/04/10 02:00:54;;;;;;;2.33;0.73;;;;;20.50;101020.00;;;;2193340;26;20257;-58
2024/04/10 02:01:55;;;;;;;2.37;1.00;;;;;20.50;101025.00;;;;2197812;26;20244;-58
2024/04/10 02:02:55;;;;;;;2.70;0.70;;;;;20.50;101048.00;;;;2204384;26;20249;-58
2024/04/10 02:03:56;;;;;;;1.70;0.50;;;;;20.50;100947.00;;;;2202541;26;20252;-58
2024/04/10 02:04:56;;;;;;;2.33;0.63;;;;;20.50;101000.00;;;;2204322;26;20378;-58
2024/04/10 02:05:56;;;;;;;3.60;0.70;;;;;20.50;101029.00;;;;2196660;26;20359;-58
2024/04/10 02:06:57;;;;;;;2.43;0.90;;;;;20.50;101026.00;;;;2208044;26;20244;-57
2024/04/10 02:07:57;;;;;;;2.30;0.83;;;;;20.50;101034.00;;;;2207515;26;20252;-58
2024/04/10 02:08:57;;;;;;;2.50;1.07;;;;;20.50;101031.00;;;;2198416;26;20371;-59
2024/04/10 02:09:58;;;;;;;2.70;0.60;;;;;20.50;100931.00;;;;2195300;26;20287;-57
2024/04/10 02:11:19;;;;;;;2.70;0.80;;;;;20.50;101032.00;;;;2186522;26;20364;-58
2024/04/10 02:12:19;;;;;;;1.85;0.60;;;;;20.50;100955.00;;;;2199837;26;20279;-59
2024/04/10 02:13:20;;;;;;;2.20;0.70;;;;;20.50;100951.00;;;;2197434;26;20297;-58
2024/04/10 02:14:20;;;;;;;3.00;0.90;;;;;20.50;100780.00;;;;2203972;26;20295;-58
2024/04/10 02:15:20;;;;;;;2.50;0.57;;;;;20.50;101041.00;;;;2204455;26;20302;-58
2024/04/10 02:16:24;;;;;;;2.43;0.63;;;;;20.50;101035.00;;;;2194574;26;20264;-58
2024/04/10 02:17:24;;;;;;;3.58;0.95;;;;;20.50;100933.00;;;;2203186;26;20260;-57
2024/04/10 02:18:24;;;;;;;2.70;0.77;;;;;20.50;101039.00;;;;2207958;26;20247;-58
2024/04/10 02:19:25;;;;;;;2.70;0.60;;;;;20.50;100985.00;;;;2204891;26;20713;-57
2024/04/10 02:20:26;;;;;;;2.30;0.73;;;;;20.50;101065.00;;;;2198763;26;20303;-59
2024/04/10 02:21:28;;;;;;;1.83;0.50;;;;;20.50;101050.00;;;;2181845;26;20277;-58
2024/04/10 02:22:28;;;;;;;2.47;0.63;;;;;20.50;100931.00;;;;2191477;26;20253;-58
2024/04/10 02:23:28;;;;;;;3.13;0.90;;;;;20.50;101036.00;;;;2210556;26;20255;-58
2024/04/10 02:24:29;;;;;;;4.40;0.90;;;;;20.50;101055.00;;;;2211592;26;20259;-58
2024/04/10 02:25:32;;;;;;;3.70;0.90;;;;;20.50;101070.00;;;;2203037;26;20264;-56
2024/04/10 02:26:33;;;;;;;2.90;1.00;;;;;20.50;101011.00;;;;2199095;26;20730;-57
2024/04/10 02:27:33;;;;;;;2.40;0.50;;;;;20.50;101009.00;;;;2202182;26;20269;-56
2024/04/10 02:28:33;;;;;;;4.87;0.90;;;;;20.50;100985.00;;;;2201510;26;20365;-57
2024/04/10 02:29:34;;;;;;;3.73;0.80;;;;;20.50;101056.00;;;;2204471;26;20306;-57
2024/04/10 02:30:34;;;;;;;3.20;0.80;;;;;20.50;100854.00;;;;2194378;26;20240;-58
2024/04/10 02:31:35;;;;;;;2.33;0.80;;;;;20.50;100988.00;;;;2202428;26;20295;-57
2024/04/10 02:32:35;;;;;;;3.37;0.90;;;;;20.50;101068.00;;;;2200285;26;20257;-57
2024/04/10 02:33:37;;;;;;;2.47;0.70;;;;;20.50;101061.00;;;;2190505;26;20496;-57
2024/04/10 02:34:37;;;;;;;3.20;0.95;;;;;20.40;101086.00;;;;2207116;26;20732;-57
2024/04/10 02:35:38;;;;;;;2.17;0.60;;;;;20.50;101056.00;;;;2192578;26;20252;-57
2024/04/10 02:36:39;;;;;;;4.70;0.73;;;;;20.50;101068.00;;;;2198337;26;20260;-58
2024/04/10 02:37:39;;;;;;;2.50;0.60;;;;;20.40;100971.00;;;;2201114;26;20487;-58
2024/04/10 02:38:39;;;;;;;2.43;0.60;;;;;20.50;101071.00;;;;2191595;26;20777;-58
2024/04/10 02:39:40;;;;;;;3.60;1.07;;;;;20.50;101051.00;;;;2203024;26;21071;-57
2024/04/10 02:40:40;;;;;;;2.70;0.73;;;;;20.50;101064.00;;;;2190717;26;20256;-57
2024/04/10 02:41:40;;;;;;;3.03;0.80;;;;;20.40;101054.00;;;;2204370;26;20294;-58
2024/04/10 02:42:51;;;;;;;2.57;0.70;;;;;20.50;101070.00;;;;2202441;26;20252;-58
2024/04/10 02:43:51;;;;;;;3.65;0.98;;;;;20.50;101092.00;;;;2200390;26;20578;-58
2024/04/10 02:44:53;;;;;;;3.30;0.60;;;;;20.50;100971.00;;;;2204154;26;20306;-58
2024/04/10 02:46:00;;;;;;;4.63;0.80;;;;;20.50;101067.00;;;;2193075;26;20279;-58
2024/04/10 02:47:01;;;;;;;2.35;0.75;;;;;20.50;101071.00;;;;2190876;26;20260;-58
2024/04/10 02:48:02;;;;;;;3.05;1.13;;;;;20.50;101065.00;;;;2207626;26;20268;-58
2024/04/10 02:49:02;;;;;;;2.57;0.60;;;;;20.50;100948.00;;;;2203100;26;20268;-57
2024/04/10 02:50:04;;;;;;;3.87;0.60;;;;;20.50;101069.00;;;;2210201;26;20268;-57
2024/04/10 02:51:06;;;;;;;3.03;0.70;;;;;20.50;101055.00;;;;2190295;26;20287;-57
2024/04/10 02:52:06;;;;;;;2.13;0.60;;;;;20.50;100907.00;;;;2203402;26;20311;-59
2024/04/10 02:53:06;;;;;;;2.10;0.60;;;;;20.40;101015.00;;;;2204636;26;20728;-58
2024/04/10 02:54:07;;;;;;;4.03;0.77;;;;;20.50;101113.00;;;;2210082;26;20251;-57
2024/04/10 02:55:07;;;;;;;5.33;0.60;;;;;20.40;100936.00;;;;2210607;26;20291;-58
2024/04/10 02:56:07;;;;;;;4.40;1.00;;;;;20.50;100934.00;;;;2190913;26;20264;-58
2024/04/10 02:57:08;;;;;;;3.20;0.80;;;;;20.50;101046.00;;;;2207482;26;20252;-59
2024/04/10 02:58:08;;;;;;;2.43;0.50;;;;;20.50;101085.00;;;;2207373;26;20264;-59
2024/04/10 02:59:08;;;;;;;2.07;0.67;;;;;20.40;101092.00;;;;2196370;26;20312;-57
2024/04/10 03:00:11;;;;;;;3.00;0.90;;;;;20.40;101007.00;;;;2197049;26;20260;-58
2024/04/10 03:01:11;;;;;;;6.30;0.90;;;;;20.40;101088.00;;;;2201481;26;20337;-61
2024/04/10 03:02:11;;;;;;;5.93;0.83;;;;;20.40;101088.00;;;;2184266;26;20864;-61
2024/04/10 03:03:12;;;;;;;2.43;0.70;;;;;20.40;101024.00;;;;2195400;26;20369;-61
2024/04/10 03:04:12;;;;;;;3.40;0.80;;;;;20.40;101018.00;;;;2200290;26;20328;-59
2024/04/10 03:05:13;;;;;;;2.43;0.80;;;;;20.40;101100.00;;;;2200516;26;20344;-56
2024/04/10 03:08:05;;;;;;;3.00;0.88;;;;;20.40;101101.00;;;;2229194;25;20671;-58
2024/04/10 03:09:06;;;;;;;4.53;0.70;;;;;20.40;101104.00;;;;2231416;26;20479;-58
2024/04/10 03:10:08;;;;;;;2.83;0.90;;;;;20.40;101096.00;;;;2238483;26;20262;-58
2024/04/10 03:11:10;;;;;;;2.83;0.70;;;;;20.40;101102.00;;;;2228923;26;20336;-57
2024/04/10 03:12:11;;;;;;;2.30;0.75;;;;;20.40;100987.00;;;;2230892;26;20703;-58
2024/04/10 03:13:12;;;;;;;1.95;0.60;;;;;20.40;101082.00;;;;2231414;26;20301;-57
2024/04/10 03:14:12;;;;;;;2.80;0.60;;;;;20.40;101099.00;;;;2225851;26;20339;-57
2024/04/10 03:15:15;;;;;;;2.87;0.87;;;;;20.40;101091.00;;;;2225326;26;20347;-57
2024/04/10 03:16:15;;;;;;;2.85;0.90;;;;;20.40;101071.00;;;;2224098;26;20257;-59
2024/04/10 03:17:16;;;;;;;3.73;0.73;;;;;20.40;100985.00;;;;2230077;26;20263;-58
2024/04/10 03:18:17;;;;;;;4.72;0.95;;;;;20.40;101045.00;;;;2225653;26;20813;-57
2024/04/10 03:19:19;;;;;;;3.00;0.90;;;;;20.40;101095.00;;;;2222977;26;20258;-58
2024/04/10 03:20:20;;;;;;;3.92;0.70;;;;;20.40;101141.00;;;;2224919;26;20254;-58
2024/04/10 03:21:21;;;;;;;4.13;0.90;;;;;20.40;101016.00;;;;2214890;26;20623;-57
2024/04/10 03:22:21;;;;;;;2.92;0.80;;;;;20.40;101130.00;;;;2234375;26;20529;-59
2024/04/10 03:23:22;;;;;;;2.60;0.60;;;;;20.40;101122.00;;;;2232374;26;20294;-59
2024/04/10 03:24:22;;;;;;;2.43;0.77;;;;;20.40;101042.00;;;;2231565;26;20249;-57
2024/04/10 03:25:22;;;;;;;2.57;0.80;;;;;20.40;101074.00;;;;2227504;26;20364;-57
2024/04/10 03:26:23;;;;;;;2.50;0.70;;;;;20.40;101122.00;;;;2221823;26;20308;-58
2024/04/10 03:27:23;;;;;;;2.37;0.60;;;;;20.40;101140.00;;;;2227133;26;20258;-57
2024/04/10 03:28:23;;;;;;;2.50;0.90;;;;;20.40;101093.00;;;;2228024;26;20250;-57
2024/04/10 03:29:24;;;;;;;2.70;0.60;;;;;20.40;101130.00;;;;2226452;26;20293;-59
2024/04/10 03:30:24;;;;;;;3.43;0.90;;;;;20.40;101141.00;;;;2226155;26;20258;-58
2024/04/10 03:31:24;;;;;;;2.70;0.60;;;;;20.40;101115.00;;;;2215884;26;20722;-58
2024/04/10 03:32:27;;;;;;;5.10;0.80;;;;;20.40;100967.00;;;;2238621;26;20266;-57
2024/04/10 03:33:27;;;;;;;2.72;1.10;;;;;20.40;101171.00;;;;2239354;26;20304;-58
2024/04/10 03:34:28;;;;;;;3.40;0.83;;;;;20.40;101145.00;;;;2224248;26;20258;-57
2024/04/10 03:35:29;;;;;;;3.70;0.83;;;;;20.40;101140.00;;;;2238383;26;20250;-57
2024/04/10 03:36:29;;;;;;;2.95;0.63;;;;;20.40;101141.00;;;;2215906;26;20251;-57
2024/04/10 03:37:30;;;;;;;3.73;0.87;;;;;20.40;101086.00;;;;2225722;26;20250;-58
2024/04/10 03:38:30;;;;;;;3.90;0.97;;;;;20.40;101153.00;;;;2225223;26;20968;-57
2024/04/10 03:39:31;;;;;;;2.93;0.70;;;;;20.40;101162.00;;;;2209001;26;20243;-58
2024/04/10 03:40:31;;;;;;;3.67;0.90;;;;;20.40;101155.00;;;;2237756;26;20351;-57
2024/04/10 03:41:34;;;;;;;3.60;1.10;;;;;20.40;101028.00;;;;2222316;26;20475;-57
2024/04/10 03:42:34;;;;;;;5.40;1.00;;;;;20.40;101163.00;;;;2235481;26;20260;-58
2024/04/10 03:43:34;;;;;;;2.27;0.63;;;;;20.40;101161.00;;;;2227119;26;20301;-57
2024/04/10 03:44:35;;;;;;;3.40;0.80;;;;;20.40;101066.00;;;;2224600;26;20305;-58
2024/04/10 03:45:36;;;;;;;2.53;0.70;;;;;20.40;101159.00;;;;2228133;26;20811;-57
2024/04/10 03:46:36;;;;;;;4.53;0.97;;;;;20.40;101100.00;;;;2221634;26;20633;-57
2024/04/10 03:47:38;;;;;;;2.73;0.70;;;;;20.40;101146.00;;;;2222725;26;20258;-56
2024/04/10 03:48:38;;;;;;;3.78;0.80;;;;;20.40;101145.00;;;;2234078;26;20246;-58
2024/04/10 03:49:39;;;;;;;4.17;0.93;;;;;20.40;101173.00;;;;2227851;26;20630;-58
2024/04/10 03:50:39;;;;;;;2.20;1.00;;;;;20.40;101160.00;;;;2225715;26;20246;-58
2024/04/10 03:51:39;;;;;;;3.43;1.13;;;;;20.40;101171.00;;;;2237243;26;21055;-58
2024/04/10 03:52:40;;;;;;;2.53;0.93;;;;;20.40;101030.00;;;;2233065;26;20756;-57
2024/04/10 03:53:40;;;;;;;2.13;0.73;;;;;20.40;101173.00;;;;2234065;26;20250;-58
2024/04/10 03:54:41;;;;;;;4.80;1.17;;;;;20.40;101064.00;;;;2225352;26;20247;-59
2024/04/10 03:55:41;;;;;;;2.70;0.70;;;;;20.40;101172.00;;;;2222442;26;20250;-59
2024/04/10 03:56:41;;;;;;;2.87;0.70;;;;;20.40;101180.00;;;;2223090;26;20321;-58
2024/04/10 03:57:42;;;;;;;2.63;0.80;;;;;20.40;101126.00;;;;2237773;26;20284;-57
2024/04/10 03:58:42;;;;;;;3.43;1.10;;;;;20.40;101168.00;;;;2233489;26;20358;-58
2024/04/10 03:59:42;;;;;;;2.83;0.90;;;;;20.40;101187.00;;;;2225415;26;20301;-58
2024/04/10 04:00:46;;;;;;;4.10;0.90;;;;;20.10;101175.00;;;;2220444;26;21127;-57
2024/04/10 04:01:46;;;;;;;2.55;0.70;;;;;20.40;101189.00;;;;2238098;26;20254;-57
2024/04/10 04:02:47;;;;;;;2.43;0.93;;;;;20.40;101193.00;;;;2222771;26;20253;-57
2024/04/10 04:03:47;;;;;;;2.50;0.90;;;;;20.40;101109.00;;;;2225837;26;20247;-58
2024/04/10 04:04:48;;;;;;;3.23;0.70;;;;;20.40;101134.00;;;;2228139;26;20259;-58
2024/04/10 04:05:48;;;;;;;3.20;0.80;;;;;20.40;101199.00;;;;2223214;26;20251;-59
2024/04/10 04:06:48;;;;;;;3.10;0.97;;;;;20.40;101048.00;;;;2253552;26;20726;-58
2024/04/10 04:07:50;;;;;;;2.83;0.77;;;;;20.40;101039.00;;;;2240798;26;20254;-62
2024/04/10 04:08:50;;;;;;;2.93;0.70;;;;;20.40;101122.00;;;;2231185;26;20254;-59
2024/04/10 04:09:50;;;;;;;4.50;0.90;;;;;20.00;101216.00;;;;2226246;26;20251;-59
2024/04/10 04:10:53;;;;;;;2.30;0.60;;;;;20.40;101207.00;;;;2214835;26;20251;-57
2024/04/10 04:11:54;;;;;;;4.50;0.70;;;;;20.30;101236.00;;;;2225114;26;20254;-57
2024/04/10 04:12:54;;;;;;;3.97;0.80;;;;;20.40;101234.00;;;;2232015;26;20246;-58
2024/04/10 04:13:54;;;;;;;2.67;0.93;;;;;20.40;101197.00;;;;2236776;26;20250;-58
2024/04/10 04:14:55;;;;;;;2.30;0.73;;;;;20.40;101221.00;;;;2233611;26;20259;-59
2024/04/10 04:15:55;;;;;;;2.30;0.87;;;;;20.40;101223.00;;;;2216035;26;20297;-56
2024/04/10 04:16:55;;;;;;;4.43;1.00;;;;;20.40;101208.00;;;;2228375;26;20305;-57
2024/04/10 04:17:56;;;;;;;5.77;0.87;;;;;20.40;101224.00;;;;2225623;26;20259;-59
2024/04/10 04:18:56;;;;;;;2.40;0.70;;;;;20.40;101239.00;;;;2229804;26;20258;-57
2024/04/10 04:19:56;;;;;;;3.53;0.80;;;;;20.40;101233.00;;;;2219997;26;20271;-57
2024/04/10 04:20:57;;;;;;;4.57;0.80;;;;;20.40;101238.00;;;;2218246;26;20253;-58
2024/04/10 04:21:57;;;;;;;3.87;1.10;;;;;20.40;101238.00;;;;2237467;26;20304;-58
2024/04/10 04:22:57;;;;;;;3.07;0.67;;;;;20.40;101238.00;;;;2230955;26;20835;-58
2024/04/10 04:23:58;;;;;;;3.97;0.97;;;;;20.30;101238.00;;;;2217764;26;20734;-58
2024/04/10 04:24:59;;;;;;;3.00;0.70;;;;;20.20;101236.00;;;;2220256;26;20293;-58
2024/04/10 04:25:59;;;;;;;3.33;0.90;;;;;20.40;101246.00;;;;2213007;26;20366;-57
2024/04/10 04:27:00;;;;;;;2.90;0.70;;;;;20.40;101247.00;;;;2225775;26;20290;-58
2024/04/10 04:28:00;;;;;;;3.00;0.80;;;;;20.40;101249.00;;;;2220975;26;20285;-58
2024/04/10 04:29:01;;;;;;;3.20;0.77;;;;;20.40;101251.00;;;;2221180;26;20379;-57
2024/04/10 04:30:01;;;;;;;2.93;0.67;;;;;20.40;101252.00;;;;2226048;26;20255;-58
2024/04/10 04:31:02;;;;;;;4.13;1.30;;;;;20.40;101255.00;;;;2209763;26;20267;-57
2024/04/10 04:32:03;;;;;;;2.20;0.70;;;;;20.40;101256.00;;;;2226252;26;20273;-57
2024/04/10 04:33:04;;;;;;;3.28;0.85;;;;;20.00;101257.00;;;;2219058;26;20248;-58
2024/04/10 04:34:12;;;;;;;3.33;1.00;;;;;20.30;101253.00;;;;2222778;26;20307;-58
2024/04/10 04:35:12;;;;;;;4.32;1.17;;;;;20.40;101263.00;;;;2223849;26;20251;-57
2024/04/10 04:36:13;;;;;;;3.00;1.03;;;;;20.40;101255.00;;;;2211446;26;20313;-57
2024/04/10 04:37:13;;;;;;;3.40;0.70;;;;;20.30;101269.00;;;;2219051;26;20256;-57
2024/04/10 04:38:14;;;;;;;3.00;0.60;;;;;20.30;101264.00;;;;2219549;26;20242;-57
2024/04/10 04:39:15;;;;;;;3.03;0.87;;;;;20.40;101266.00;;;;2224786;26;20251;-57
2024/04/10 04:40:15;;;;;;;2.80;1.17;;;;;20.40;101268.00;;;;2218957;26;21120;-57
2024/04/10 04:41:16;;;;;;;2.00;0.70;;;;;20.40;101274.00;;;;2210121;26;20247;-57
2024/04/10 04:42:16;;;;;;;3.07;0.87;;;;;20.40;101273.00;;;;2227170;26;20320;-58
2024/04/10 04:43:17;;;;;;;3.60;0.93;;;;;20.00;101275.00;;;;2220086;26;20259;-57
2024/04/10 04:44:17;;;;;;;2.10;0.60;;;;;20.40;101279.00;;;;2219244;26;20368;-58
2024/04/10 04:45:17;;;;;;;3.37;0.87;;;;;20.40;101277.00;;;;2219699;26;20243;-58
2024/04/10 04:46:18;;;;;;;2.47;0.80;;;;;20.40;101283.00;;;;2208973;26;20766;-57
2024/04/10 04:47:19;;;;;;;2.53;0.73;;;;;20.30;101281.00;;;;2221011;26;20243;-58
2024/04/10 04:48:20;;;;;;;4.83;0.70;;;;;20.40;101283.00;;;;2218579;26;20352;-58
2024/04/10 04:49:20;;;;;;;3.83;0.80;;;;;20.40;101282.00;;;;2217939;26;20251;-58
2024/04/10 04:50:20;;;;;;;2.70;1.00;;;;;20.40;101286.00;;;;2222105;26;20363;-57
2024/04/10 04:51:21;;;;;;;2.60;0.60;;;;;20.40;101284.00;;;;2209186;26;20259;-57
2024/04/10 04:52:22;;;;;;;3.50;0.80;;;;;20.30;101285.00;;;;2217402;26;20247;-57
2024/04/10 04:53:23;;;;;;;2.35;0.70;;;;;20.30;101290.00;;;;2218977;26;20248;-57
2024/04/10 04:54:23;;;;;;;3.07;0.80;;;;;20.30;101306.00;;;;2218940;26;20758;-57
2024/04/10 04:55:23;;;;;;;2.80;0.70;;;;;20.30;101337.00;;;;2225970;26;20623;-59
2024/04/10 04:56:23;;;;;;;3.03;0.70;;;;;20.30;101288.00;;;;2219736;26;20686;-59
2024/04/10 04:57:24;;;;;;;3.33;0.80;;;;;20.40;101290.00;;;;2226428;26;21305;-58
2024/04/10 04:58:24;;;;;;;4.87;0.80;;;;;20.30;101308.00;;;;2222450;26;20578;-58
2024/04/10 04:59:24;;;;;;;3.50;0.70;;;;;20.40;101308.00;;;;2218376;26;20723;-57
2024/04/10 05:00:25;;;;;;;3.50;0.90;;;;;20.30;101305.00;;;;2222685;26;20251;-58
2024/04/10 05:01:26;;;;;;;3.03;0.70;;;;;20.30;101305.00;;;;2210545;26;20735;-58
2024/04/10 05:02:26;;;;;;;2.33;0.70;;;;;20.30;101308.00;;;;2223925;26;20254;-58